Time;durP1;ratioP1;P1;durP2;ratioP2;P2;SDS_P1;SDS_P2;PMS_P1;PMS_P2;Temp;Humidity;BMP_temperature;BMP_pressure;BME280_temperature;BME280_humidity;BME280_pressure;Samples;Min_cycle;Max_cycle;Signal;HPM_P1;HPM_P2
2021/03/12 00:00:38;;;;;;;11.35;8.52;;;17.00;41.10;;;;;;4833403;29;20170;-82
2021/03/12 00:03:09;;;;;;;11.43;8.32;;;17.00;41.20;;;;;;4849262;29;20690;-81
2021/03/12 00:05:55;;;;;;;11.82;8.60;;;17.00;41.20;;;;;;4833753;29;20184;-82
2021/03/12 00:08:33;;;;;;;12.07;7.95;;;16.90;41.10;;;;;;4849243;29;20162;-83
2021/03/12 00:11:17;;;;;;;11.48;8.30;;;17.00;41.10;;;;;;4834355;29;20165;-81
2021/03/12 00:13:44;;;;;;;11.25;8.52;;;17.00;41.10;;;;;;4848539;29;20208;-83
2021/03/12 00:16:11;;;;;;;10.43;8.10;;;17.00;41.10;;;;;;4848733;29;20168;-80
2021/03/12 00:18:44;;;;;;;11.15;8.70;;;17.00;41.10;;;;;;4832874;29;20168;-82
2021/03/12 00:21:13;;;;;;;14.55;8.80;;;17.00;41.10;;;;;;4847896;29;20157;-82
2021/03/12 00:23:41;;;;;;;11.75;8.82;;;17.00;40.90;;;;;;4847790;29;20256;-81
2021/03/12 00:26:09;;;;;;;13.02;8.52;;;17.00;41.10;;;;;;4832749;29;20229;-81
2021/03/12 00:28:36;;;;;;;11.85;8.50;;;17.00;41.00;;;;;;4848144;29;20172;-82
2021/03/12 00:31:02;;;;;;;10.38;8.20;;;17.00;40.90;;;;;;4832888;29;20184;-83
2021/03/12 00:33:28;;;;;;;11.13;8.10;;;17.00;41.00;;;;;;4832910;29;20211;-82
2021/03/12 00:35:54;;;;;;;12.57;8.60;;;16.90;41.10;;;;;;4832412;29;20165;-81
2021/03/12 00:38:21;;;;;;;10.15;8.10;;;16.90;41.10;;;;;;4848046;29;20169;-81
2021/03/12 00:40:54;;;;;;;10.85;8.27;;;16.90;41.10;;;;;;4832945;29;20174;-84
2021/03/12 00:43:19;;;;;;;9.40;8.02;;;16.90;41.10;;;;;;4847639;29;20209;-81
2021/03/12 00:45:51;;;;;;;10.15;8.15;;;16.90;41.20;;;;;;4832778;29;20567;-85
2021/03/12 00:48:20;;;;;;;10.88;8.23;;;16.90;41.20;;;;;;4847721;29;20183;-81
2021/03/12 00:50:48;;;;;;;10.90;8.35;;;16.90;41.20;;;;;;4832042;29;20169;-82
2021/03/12 00:53:14;;;;;;;10.15;7.88;;;16.90;41.10;;;;;;4847856;29;20206;-83
2021/03/12 00:55:41;;;;;;;10.05;7.95;;;16.90;41.20;;;;;;4848792;29;20237;-81
2021/03/12 00:58:06;;;;;;;11.05;8.65;;;16.90;41.20;;;;;;4833082;29;20161;-81
2021/03/12 01:00:36;;;;;;;10.73;8.15;;;16.90;41.20;;;;;;4833137;29;20232;-82
2021/03/12 01:03:02;;;;;;;11.45;8.63;;;16.90;41.20;;;;;;4832801;29;20185;-84
2021/03/12 01:05:29;;;;;;;10.57;8.02;;;16.90;41.20;;;;;;4848612;29;20189;-80
2021/03/12 01:07:56;;;;;;;12.18;8.50;;;16.90;41.10;;;;;;4848896;29;20169;-82
2021/03/12 01:10:24;;;;;;;10.65;8.40;;;16.90;41.10;;;;;;4833166;29;20236;-80
2021/03/12 01:12:51;;;;;;;10.82;8.35;;;16.90;41.20;;;;;;4833370;29;20198;-79
2021/03/12 01:15:21;;;;;;;10.77;8.68;;;16.90;41.20;;;;;;4833200;29;20169;-81
2021/03/12 01:17:55;;;;;;;10.43;8.40;;;16.90;41.20;;;;;;4832963;29;20169;-82
2021/03/12 01:20:24;;;;;;;10.88;8.15;;;16.90;41.20;;;;;;4849350;29;20503;-84
2021/03/12 01:22:50;;;;;;;10.85;8.52;;;16.90;41.10;;;;;;4833082;29;20173;-82
2021/03/12 01:25:18;;;;;;;11.15;8.38;;;16.90;41.20;;;;;;4848108;29;20240;-82
2021/03/12 01:27:45;;;;;;;13.25;8.88;;;16.90;41.20;;;;;;4848352;29;20177;-82
2021/03/12 01:30:19;;;;;;;10.98;8.07;;;16.90;41.20;;;;;;4848646;29;20165;-83
2021/03/12 01:32:48;;;;;;;10.10;7.97;;;16.90;41.30;;;;;;4832121;29;20205;-83
2021/03/12 01:35:14;;;;;;;11.18;7.97;;;16.90;41.30;;;;;;4847453;29;20692;-82
2021/03/12 01:37:42;;;;;;;9.88;7.88;;;16.80;41.30;;;;;;4832856;29;20558;-81
2021/03/12 01:40:10;;;;;;;10.07;7.95;;;16.80;41.30;;;;;;4847756;29;20578;-82
2021/03/12 01:42:37;;;;;;;12.48;8.80;;;16.80;41.30;;;;;;4817230;29;20181;-82
2021/03/12 01:45:07;;;;;;;12.68;8.48;;;16.80;41.20;;;;;;4847965;29;20162;-81
2021/03/12 01:47:34;;;;;;;9.75;8.10;;;16.90;41.30;;;;;;4847230;29;20174;-80
2021/03/12 01:50:00;;;;;;;11.40;8.43;;;16.90;41.30;;;;;;4847232;29;20177;-81
2021/03/12 01:52:28;;;;;;;11.57;8.35;;;16.80;41.30;;;;;;4847430;29;20197;-83
2021/03/12 01:54:54;;;;;;;11.00;8.30;;;16.90;41.20;;;;;;4831808;29;20181;-84
2021/03/12 01:57:21;;;;;;;10.63;7.95;;;16.90;41.30;;;;;;4832006;29;20178;-82
2021/03/12 01:59:48;;;;;;;12.00;8.60;;;16.90;41.20;;;;;;4847012;29;20191;-82
2021/03/12 02:02:15;;;;;;;12.13;8.32;;;16.90;41.20;;;;;;4846913;29;20256;-84
2021/03/12 02:04:41;;;;;;;9.25;7.65;;;16.80;41.20;;;;;;4831794;29;20188;-83
2021/03/12 02:07:10;;;;;;;10.32;7.90;;;16.80;41.20;;;;;;4847383;29;20162;-81
2021/03/12 02:09:35;;;;;;;9.32;7.88;;;16.80;41.30;;;;;;4846948;29;20165;-82
2021/03/12 02:12:16;;;;;;;10.68;8.00;;;16.80;41.30;;;;;;4846615;29;20197;-84
2021/03/12 02:14:52;;;;;;;9.98;8.07;;;16.80;41.30;;;;;;4846478;29;20161;-80
2021/03/12 02:17:22;;;;;;;9.43;7.78;;;16.80;41.30;;;;;;4831710;29;20170;-82
2021/03/12 02:20:24;;;;;;;11.20;8.05;;;16.80;41.30;;;;;;4846413;29;20162;-84
2021/03/12 02:22:56;;;;;;;12.57;8.27;;;16.80;41.30;;;;;;4848266;29;20165;-80
2021/03/12 02:25:21;;;;;;;10.75;8.30;;;16.80;41.40;;;;;;4846043;29;20225;-82
2021/03/12 02:27:48;;;;;;;11.60;8.25;;;16.80;41.30;;;;;;4846375;29;20257;-81
2021/03/12 02:30:16;;;;;;;10.50;8.13;;;16.80;41.30;;;;;;4846358;29;20161;-84
2021/03/12 02:32:44;;;;;;;10.60;8.10;;;16.80;41.30;;;;;;4846849;29;20189;-81
2021/03/12 02:35:17;;;;;;;10.30;7.80;;;16.80;41.20;;;;;;4831358;29;20218;-80
2021/03/12 02:37:43;;;;;;;10.68;8.13;;;16.90;41.20;;;;;;4831924;29;20201;-83
2021/03/12 02:40:20;;;;;;;10.68;7.72;;;16.80;41.20;;;;;;4845687;29;20165;-82
2021/03/12 02:42:47;;;;;;;11.57;8.05;;;16.80;41.30;;;;;;4830907;29;20173;-81
2021/03/12 02:45:16;;;;;;;11.25;7.97;;;16.80;41.30;;;;;;4846105;29;20173;-81
2021/03/12 02:47:43;;;;;;;10.55;8.32;;;16.80;41.40;;;;;;4830364;29;20184;-81
2021/03/12 02:50:10;;;;;;;10.57;8.10;;;16.80;41.30;;;;;;4845597;29;20553;-81
2021/03/12 02:52:37;;;;;;;9.68;7.90;;;16.80;41.20;;;;;;4815582;29;20205;-82
2021/03/12 02:55:07;;;;;;;9.38;7.47;;;16.80;41.20;;;;;;4830473;29;20165;-81
2021/03/12 02:57:32;;;;;;;11.52;8.38;;;16.80;41.20;;;;;;4846399;29;20169;-81
2021/03/12 03:00:08;;;;;;;10.13;8.18;;;16.80;41.30;;;;;;4830758;29;20165;-82
2021/03/12 03:02:42;;;;;;;10.30;8.10;;;16.80;41.40;;;;;;4830553;29;20180;-83
2021/03/12 03:05:08;;;;;;;12.00;8.27;;;16.80;41.40;;;;;;4830323;29;20256;-82
2021/03/12 03:07:38;;;;;;;12.73;9.00;;;16.80;41.40;;;;;;4845757;29;20161;-80
2021/03/12 03:10:09;;;;;;;8.98;7.47;;;16.80;41.30;;;;;;4830746;29;20706;-83
2021/03/12 03:12:36;;;;;;;10.60;8.30;;;16.80;41.40;;;;;;4845707;29;20665;-82
2021/03/12 03:15:03;;;;;;;10.68;7.80;;;16.80;41.40;;;;;;4830180;29;20166;-82
2021/03/12 03:17:30;;;;;;;10.88;7.88;;;16.80;41.40;;;;;;4845328;29;20166;-81
2021/03/12 03:19:55;;;;;;;10.30;7.90;;;16.80;41.50;;;;;;4832600;29;20181;-81
2021/03/12 03:22:21;;;;;;;10.45;8.15;;;16.70;41.30;;;;;;4850503;29;20162;-81
2021/03/12 03:24:47;;;;;;;12.10;7.90;;;16.70;41.40;;;;;;4833311;29;20245;-81
2021/03/12 03:27:15;;;;;;;10.57;8.15;;;16.70;41.40;;;;;;4833822;29;20178;-83
2021/03/12 03:29:42;;;;;;;10.07;7.93;;;16.70;41.40;;;;;;4833676;29;20184;-81
2021/03/12 03:32:08;;;;;;;10.45;7.88;;;16.70;41.40;;;;;;4833949;29;20209;-81
2021/03/12 03:34:36;;;;;;;10.90;8.38;;;16.70;41.40;;;;;;4833933;29;20176;-83
2021/03/12 03:37:02;;;;;;;10.00;7.90;;;16.70;41.40;;;;;;4833766;29;20182;-84
2021/03/12 03:39:33;;;;;;;11.40;7.78;;;16.80;41.30;;;;;;4833907;29;20682;-82
2021/03/12 03:42:01;;;;;;;9.30;7.38;;;16.80;41.40;;;;;;4833115;29;20184;-84
2021/03/12 03:44:28;;;;;;;11.27;7.80;;;16.70;41.30;;;;;;4848407;29;20188;-83
2021/03/12 03:46:57;;;;;;;9.98;7.93;;;16.70;41.40;;;;;;4833506;29;20178;-81
2021/03/12 03:49:25;;;;;;;10.45;8.13;;;16.80;41.40;;;;;;4848801;29;20165;-80
2021/03/12 03:51:52;;;;;;;10.43;8.00;;;16.70;41.30;;;;;;4832766;29;20283;-84
2021/03/12 03:54:20;;;;;;;10.05;7.78;;;16.70;41.40;;;;;;4848685;29;20166;-84
2021/03/12 03:56:48;;;;;;;11.23;8.43;;;16.70;41.30;;;;;;4848996;29;20160;-82
2021/03/12 03:59:14;;;;;;;9.55;7.80;;;16.80;41.40;;;;;;4833366;29;20173;-80
2021/03/12 04:01:41;;;;;;;9.77;7.65;;;16.80;41.30;;;;;;4848397;29;20166;-84
2021/03/12 04:04:07;;;;;;;11.20;8.27;;;16.80;41.40;;;;;;4848669;29;20189;-81
2021/03/12 04:06:34;;;;;;;9.93;7.85;;;16.70;41.40;;;;;;4833616;29;20541;-83
2021/03/12 04:09:03;;;;;;;10.98;8.40;;;16.70;41.40;;;;;;4833010;29;20181;-80
2021/03/12 04:11:40;;;;;;;10.23;7.90;;;16.70;41.40;;;;;;4847682;29;20154;-82
2021/03/12 04:14:06;;;;;;;9.35;7.80;;;16.70;41.40;;;;;;4848111;29;20162;-81
2021/03/12 04:16:32;;;;;;;9.82;7.88;;;16.70;41.40;;;;;;4848224;29;20166;-81
2021/03/12 04:18:58;;;;;;;12.48;8.77;;;16.70;41.50;;;;;;4832993;29;20722;-82
2021/03/12 04:21:25;;;;;;;10.20;7.85;;;16.70;41.50;;;;;;4832548;29;20177;-81
2021/03/12 04:23:51;;;;;;;12.40;8.75;;;16.70;41.40;;;;;;4847876;29;20215;-84
2021/03/12 04:26:17;;;;;;;9.75;8.18;;;16.80;41.50;;;;;;4831732;29;20283;-82
2021/03/12 04:28:42;;;;;;;10.38;7.85;;;16.70;41.50;;;;;;4832090;29;20589;-81
2021/03/12 04:31:09;;;;;;;10.82;8.02;;;16.70;41.30;;;;;;4846661;29;20158;-80
2021/03/12 04:33:35;;;;;;;9.32;7.93;;;16.70;41.40;;;;;;4832030;29;20205;-83
2021/03/12 04:36:01;;;;;;;10.85;8.25;;;16.70;41.30;;;;;;4832373;29;20165;-81
2021/03/12 04:38:27;;;;;;;11.93;8.27;;;16.70;41.50;;;;;;4831461;29;20533;-83
2021/03/12 04:40:53;;;;;;;11.20;8.23;;;16.70;41.50;;;;;;4832134;29;20177;-83
2021/03/12 04:43:22;;;;;;;11.00;8.10;;;16.70;41.50;;;;;;4846839;29;20617;-82
2021/03/12 04:45:48;;;;;;;10.57;7.72;;;16.70;41.60;;;;;;4847052;29;20166;-83
2021/03/12 04:48:14;;;;;;;9.63;7.50;;;16.70;41.50;;;;;;4847200;29;20165;-82
2021/03/12 04:50:40;;;;;;;11.15;7.95;;;16.70;41.50;;;;;;4831648;29;20165;-81
2021/03/12 04:53:09;;;;;;;9.85;8.05;;;16.70;41.40;;;;;;4847142;29;20329;-83
2021/03/12 04:55:35;;;;;;;11.25;8.27;;;16.70;41.40;;;;;;4831545;29;20208;-82
2021/03/12 04:58:09;;;;;;;9.60;7.68;;;16.70;41.50;;;;;;4846299;29;20158;-83
2021/03/12 05:00:44;;;;;;;10.65;8.13;;;16.80;41.30;;;;;;4845434;29;20628;-83
2021/03/12 05:03:14;;;;;;;11.45;8.45;;;16.80;41.30;;;;;;4845710;29;20252;-83
2021/03/12 05:05:46;;;;;;;10.90;8.30;;;16.80;41.30;;;;;;4830233;29;20653;-83
2021/03/12 05:08:13;;;;;;;10.75;8.45;;;16.80;41.30;;;;;;4830161;29;20181;-82
2021/03/12 05:10:57;;;;;;;10.52;8.02;;;16.80;42.00;;;;;;4846151;29;20172;-81
2021/03/12 05:13:23;;;;;;;10.85;7.82;;;16.70;41.30;;;;;;4830348;29;20198;-85
2021/03/12 05:15:49;;;;;;;11.57;8.40;;;16.80;41.20;;;;;;4830489;29;20169;-84
2021/03/12 05:18:22;;;;;;;12.55;8.50;;;16.90;41.10;;;;;;4846250;29;20161;-81
2021/03/12 05:20:49;;;;;;;10.85;8.35;;;16.90;41.00;;;;;;4830163;29;20201;-83
2021/03/12 05:23:18;;;;;;;10.80;8.27;;;16.90;40.90;;;;;;4830165;29;20174;-82
2021/03/12 05:25:47;;;;;;;10.32;7.93;;;16.90;41.00;;;;;;4844842;29;20256;-84
2021/03/12 05:28:15;;;;;;;9.38;7.70;;;17.00;41.00;;;;;;4829690;29;20172;-82
2021/03/12 05:30:45;;;;;;;10.52;7.82;;;17.00;40.90;;;;;;4844925;29;20193;-82
2021/03/12 05:33:12;;;;;;;9.35;7.70;;;17.00;41.00;;;;;;4844941;29;20220;-80
2021/03/12 05:35:38;;;;;;;10.02;7.88;;;17.00;41.00;;;;;;4844792;29;20529;-82
2021/03/12 05:38:05;;;;;;;11.25;8.10;;;17.00;41.00;;;;;;4845806;29;20225;-84
2021/03/12 05:40:32;;;;;;;10.13;7.85;;;17.00;40.90;;;;;;4830295;29;20176;-83
2021/03/12 05:42:59;;;;;;;11.10;8.30;;;16.90;41.00;;;;;;4844313;29;20229;-83
2021/03/12 05:45:26;;;;;;;11.02;8.27;;;16.90;41.20;;;;;;4846145;29;20161;-82
2021/03/12 05:47:53;;;;;;;11.93;8.23;;;16.90;41.10;;;;;;4847095;29;20168;-80
2021/03/12 05:50:19;;;;;;;10.55;7.68;;;16.90;41.20;;;;;;4830933;29;20177;-82
2021/03/12 05:52:54;;;;;;;10.63;7.70;;;16.90;41.20;;;;;;4849123;29;20287;-81
2021/03/12 05:55:26;;;;;;;10.23;7.60;;;17.00;41.00;;;;;;4863031;29;20168;-81
2021/03/12 05:57:53;;;;;;;10.68;7.63;;;17.00;40.90;;;;;;4847141;29;20164;-82
2021/03/12 06:00:20;;;;;;;9.88;7.75;;;17.00;41.00;;;;;;4864084;29;20161;-81
2021/03/12 06:02:47;;;;;;;9.00;7.18;;;17.00;40.90;;;;;;4865430;29;20232;-82
2021/03/12 06:05:14;;;;;;;11.43;7.97;;;17.00;40.90;;;;;;4866795;29;20165;-84
2021/03/12 06:07:42;;;;;;;10.07;7.35;;;17.00;40.90;;;;;;4867018;29;20213;-82
2021/03/12 06:10:13;;;;;;;10.68;7.95;;;17.10;40.90;;;;;;4867290;29;20161;-82
2021/03/12 06:12:39;;;;;;;10.52;7.45;;;17.00;40.90;;;;;;4867021;29;20197;-82
2021/03/12 06:15:15;;;;;;;10.00;7.80;;;16.90;41.00;;;;;;4871647;29;20224;-81
2021/03/12 06:17:46;;;;;;;10.20;7.68;;;17.00;40.90;;;;;;4849676;29;20160;-81
2021/03/12 06:20:15;;;;;;;10.65;7.40;;;17.00;41.00;;;;;;4864241;29;20153;-83
2021/03/12 06:22:56;;;;;;;10.50;8.05;;;17.00;41.00;;;;;;4834329;29;20169;-81
2021/03/12 06:25:23;;;;;;;10.95;7.85;;;17.00;41.00;;;;;;4849225;29;20225;-81
2021/03/12 06:27:52;;;;;;;10.07;7.88;;;17.00;41.00;;;;;;4833331;29;20200;-85
2021/03/12 06:30:19;;;;;;;10.85;7.97;;;17.00;41.00;;;;;;4838766;29;20233;-84
2021/03/12 06:32:50;;;;;;;10.95;7.63;;;17.10;41.00;;;;;;4841686;29;20207;-82
2021/03/12 06:35:23;;;;;;;10.77;7.97;;;17.10;40.90;;;;;;4835734;29;20225;-83
2021/03/12 06:37:50;;;;;;;11.20;8.15;;;17.10;41.00;;;;;;4820753;29;20168;-81
2021/03/12 06:40:20;;;;;;;11.23;8.05;;;17.00;40.90;;;;;;4835994;29;20179;-84
2021/03/12 06:43:07;;;;;;;9.40;7.15;;;17.00;41.10;;;;;;4820193;29;20176;-83
2021/03/12 06:45:50;;;;;;;10.13;7.55;;;17.00;41.00;;;;;;4868611;29;20525;-83
2021/03/12 06:48:26;;;;;;;11.07;7.85;;;16.90;41.10;;;;;;4851206;29;20632;-81
2021/03/12 06:50:59;;;;;;;9.13;6.95;;;17.00;41.10;;;;;;4837420;29;20196;-83
2021/03/12 06:53:32;;;;;;;11.32;8.02;;;17.00;41.10;;;;;;4850329;29;20212;-82
2021/03/12 06:56:02;;;;;;;10.75;7.57;;;17.00;41.20;;;;;;4829918;29;20637;-84
2021/03/12 06:58:29;;;;;;;9.45;6.90;;;17.00;41.10;;;;;;4832044;29;20178;-80
2021/03/12 07:00:55;;;;;;;11.23;7.40;;;17.00;41.10;;;;;;4812988;29;20208;-81
2021/03/12 07:03:25;;;;;;;10.45;7.88;;;17.00;41.40;;;;;;4828309;29;20242;-83
2021/03/12 07:06:01;;;;;;;10.57;7.38;;;17.10;41.30;;;;;;4814072;29;20263;-82
2021/03/12 07:08:28;;;;;;;10.85;7.55;;;17.10;41.40;;;;;;4849322;29;20175;-81
2021/03/12 07:10:55;;;;;;;9.50;7.53;;;17.10;41.50;;;;;;4846199;29;20173;-84
2021/03/12 07:13:22;;;;;;;9.90;7.03;;;17.10;41.40;;;;;;4835103;29;20203;-83
2021/03/12 07:15:49;;;;;;;10.40;7.55;;;17.10;41.30;;;;;;4829537;29;20508;-82
2021/03/12 07:18:15;;;;;;;9.73;6.97;;;17.20;41.00;;;;;;4815678;29;20229;-81
2021/03/12 07:20:42;;;;;;;9.98;7.15;;;17.10;41.30;;;;;;4831730;29;20162;-83
2021/03/12 07:23:09;;;;;;;10.68;7.40;;;17.20;41.00;;;;;;4826130;29;20359;-82
2021/03/12 07:25:35;;;;;;;9.00;6.75;;;17.20;41.00;;;;;;4846309;29;20262;-81
2021/03/12 07:28:04;;;;;;;9.57;7.05;;;17.20;40.90;;;;;;4816064;29;20201;-82
2021/03/12 07:30:32;;;;;;;11.65;7.85;;;17.20;41.00;;;;;;4833171;29;20260;-81
2021/03/12 07:32:59;;;;;;;10.07;7.20;;;17.20;41.00;;;;;;4836410;29;20269;-81
2021/03/12 07:35:26;;;;;;;9.52;7.18;;;17.20;41.00;;;;;;4821192;29;20205;-82
2021/03/12 07:37:53;;;;;;;9.98;7.53;;;17.10;41.10;;;;;;4834346;29;20274;-82
2021/03/12 07:40:21;;;;;;;9.07;7.05;;;17.10;41.10;;;;;;4829111;29;20158;-84
2021/03/12 07:42:47;;;;;;;9.85;7.30;;;17.10;41.10;;;;;;4827608;29;20205;-82
2021/03/12 07:45:26;;;;;;;9.25;6.97;;;17.20;41.00;;;;;;4828938;29;20167;-83
2021/03/12 07:47:55;;;;;;;9.18;6.60;;;17.20;41.10;;;;;;4828693;29;20182;-81
2021/03/12 07:50:43;;;;;;;10.35;7.35;;;17.10;41.10;;;;;;4813569;29;20176;-81
2021/03/12 07:53:11;;;;;;;10.98;7.40;;;17.20;41.10;;;;;;4813231;29;20202;-83
2021/03/12 07:55:42;;;;;;;10.45;7.18;;;17.10;41.10;;;;;;4829847;29;20181;-80
2021/03/12 07:58:54;;;;;;;10.00;7.07;;;17.10;41.20;;;;;;4830052;29;20182;-81
2021/03/12 08:01:23;;;;;;;9.60;6.88;;;17.20;41.20;;;;;;4842239;29;20205;-86
2021/03/12 08:03:51;;;;;;;10.18;7.40;;;17.20;41.00;;;;;;4814931;29;20189;-83
2021/03/12 08:06:20;;;;;;;8.77;6.43;;;17.30;40.90;;;;;;4830080;29;20227;-81
2021/03/12 08:08:49;;;;;;;8.70;6.72;;;17.20;41.00;;;;;;4853535;29;20693;-81
2021/03/12 08:11:36;;;;;;;8.63;6.47;;;17.20;41.10;;;;;;4839415;29;20633;-81
2021/03/12 08:14:08;;;;;;;9.20;6.95;;;17.20;41.20;;;;;;4840663;29;20181;-80
2021/03/12 08:17:00;;;;;;;9.50;7.40;;;17.20;41.10;;;;;;4854658;29;20208;-80
2021/03/12 08:19:34;;;;;;;7.43;6.07;;;17.20;41.00;;;;;;4854540;29;20272;-82
2021/03/12 08:22:00;;;;;;;8.07;5.97;;;17.30;41.00;;;;;;4838888;29;20218;-81
2021/03/12 08:24:45;;;;;;;7.70;6.25;;;17.40;40.80;;;;;;4821150;29;20180;-81
2021/03/12 08:27:11;;;;;;;9.40;6.65;;;17.40;40.80;;;;;;4834160;29;20177;-79
2021/03/12 08:29:37;;;;;;;7.68;5.93;;;17.30;41.00;;;;;;4824272;29;20674;-81
2021/03/12 08:32:44;;;;;;;8.60;6.43;;;17.30;41.10;;;;;;4849863;29;20261;-81
2021/03/12 08:35:42;;;;;;;8.52;6.47;;;17.30;41.00;;;;;;4849679;29;20196;-81
2021/03/12 08:38:10;;;;;;;8.50;6.18;;;17.30;41.70;;;;;;4848069;29;20173;-81
2021/03/12 08:40:37;;;;;;;8.70;6.18;;;17.30;41.00;;;;;;4849941;29;20605;-80
2021/03/12 08:43:08;;;;;;;8.15;6.10;;;17.40;40.90;;;;;;4852716;29;20199;-81
2021/03/12 08:45:54;;;;;;;7.93;6.13;;;17.30;41.00;;;;;;4835544;29;20606;-80
2021/03/12 08:48:35;;;;;;;7.28;5.72;;;17.30;41.10;;;;;;4852421;29;20166;-81
2021/03/12 08:51:03;;;;;;;7.78;6.20;;;17.30;41.10;;;;;;4850411;29;20158;-81
2021/03/12 08:53:36;;;;;;;8.88;6.28;;;17.30;41.00;;;;;;4831824;29;20198;-80
2021/03/12 08:56:03;;;;;;;8.45;5.72;;;17.30;41.10;;;;;;4830898;29;20165;-81
2021/03/12 08:58:30;;;;;;;7.78;5.85;;;17.30;41.20;;;;;;4815555;29;20744;-82
2021/03/12 09:00:57;;;;;;;7.40;5.60;;;17.30;41.20;;;;;;4833925;29;20170;-82
2021/03/12 09:03:30;;;;;;;7.68;5.63;;;17.30;41.10;;;;;;4833412;29;20173;-80
2021/03/12 09:06:05;;;;;;;7.72;5.95;;;17.30;41.20;;;;;;4835380;29;20493;-82
2021/03/12 09:08:31;;;;;;;6.80;5.40;;;17.30;41.20;;;;;;4833484;29;20625;-82
2021/03/12 09:10:58;;;;;;;7.22;5.35;;;17.40;41.30;;;;;;4815460;29;20166;-81
2021/03/12 09:13:39;;;;;;;7.13;5.60;;;17.40;41.20;;;;;;4820337;29;20217;-81
2021/03/12 09:16:07;;;;;;;6.32;5.05;;;17.40;41.10;;;;;;4836144;29;20170;-80
2021/03/12 09:18:36;;;;;;;8.20;5.97;;;17.40;41.10;;;;;;4854971;29;20157;-81
2021/03/12 09:21:19;;;;;;;6.93;5.30;;;17.40;41.20;;;;;;4835101;29;20229;-84
2021/03/12 09:23:56;;;;;;;7.93;5.60;;;17.40;41.30;;;;;;4854988;29;20629;-81
2021/03/12 09:26:30;;;;;;;6.47;5.35;;;17.40;41.40;;;;;;4842757;29;20288;-85
2021/03/12 09:29:24;;;;;;;7.43;5.65;;;17.40;41.30;;;;;;4850203;29;20195;-84
2021/03/12 09:31:59;;;;;;;9.88;5.70;;;17.40;41.40;;;;;;4848329;29;20224;-86
2021/03/12 09:34:27;;;;;;;7.82;5.70;;;17.30;41.40;;;;;;4843326;29;20194;-85
2021/03/12 09:36:58;;;;;;;6.63;5.22;;;17.30;41.60;;;;;;4848062;29;20740;-84
2021/03/12 09:39:37;;;;;;;6.85;5.35;;;17.30;41.50;;;;;;4845039;29;20196;-84
2021/03/12 09:42:33;;;;;;;6.95;5.20;;;17.40;41.40;;;;;;4846828;29;20193;-85
2021/03/12 09:45:19;;;;;;;6.38;4.88;;;17.30;41.50;;;;;;4861876;29;20178;-84
2021/03/12 09:48:27;;;;;;;5.63;4.20;;;17.30;41.50;;;;;;4864008;29;20153;-85
2021/03/12 09:51:36;;;;;;;5.57;4.72;;;17.40;41.20;;;;;;4863915;29;20283;-85
2021/03/12 09:54:18;;;;;;;6.50;4.72;;;17.50;41.20;;;;;;4864043;29;20177;-84
2021/03/12 09:56:57;;;;;;;7.65;5.30;;;17.40;41.20;;;;;;4848753;29;20256;-84
2021/03/12 09:59:52;;;;;;;6.35;5.03;;;17.40;41.40;;;;;;4835533;29;20229;-85
2021/03/12 10:02:22;;;;;;;5.30;4.25;;;17.40;41.40;;;;;;4862812;29;20181;-84
2021/03/12 10:05:03;;;;;;;7.07;5.20;;;17.50;41.20;;;;;;4859151;29;20168;-84
2021/03/12 10:10:34;;;;;;;7.80;5.10;;;17.60;41.10;;;;;;5153302;23;20225;-84
2021/03/12 10:22:00;;;;;;;6.50;4.90;;;17.50;41.20;;;;;;5962759;23;21075;31
2021/03/12 10:31:45;;;;;;;5.32;4.43;;;17.40;41.40;;;;;;4848142;29;20169;-84
2021/03/12 10:57:48;;;;;;;5.20;4.18;;;17.40;41.40;;;;;;5686989;23;20943;-86
2021/03/12 11:00:43;;;;;;;6.38;4.47;;;17.50;41.40;;;;;;4848075;29;20219;-84
2021/03/12 11:03:20;;;;;;;5.53;4.13;;;17.40;41.60;;;;;;4848885;29;20170;-85
2021/03/12 11:05:51;;;;;;;4.78;4.03;;;17.50;41.50;;;;;;4848747;29;20164;-85
2021/03/12 11:08:41;;;;;;;5.15;3.95;;;17.50;41.30;;;;;;4834118;29;20162;-84
2021/03/12 11:11:30;;;;;;;5.47;4.40;;;17.40;41.40;;;;;;4864024;29;20176;-84
2021/03/12 11:14:23;;;;;;;5.47;4.28;;;17.40;41.40;;;;;;4848162;29;20220;-85
2021/03/12 11:17:10;;;;;;;6.68;4.45;;;17.50;41.50;;;;;;4863780;29;20165;-85
2021/03/12 11:20:00;;;;;;;4.55;3.92;;;17.50;41.50;;;;;;4832698;29;20184;-85
2021/03/12 11:22:41;;;;;;;5.22;3.60;;;17.50;41.50;;;;;;4832482;29;20166;-85
2021/03/12 11:25:18;;;;;;;4.65;3.65;;;17.50;41.60;;;;;;4832261;29;20189;-85
2021/03/12 11:28:30;;;;;;;5.60;4.32;;;17.50;41.60;;;;;;4847164;29;20164;-85
2021/03/12 11:31:06;;;;;;;6.55;3.85;;;17.50;41.60;;;;;;4816002;29;20181;-85
2021/03/12 11:34:14;;;;;;;4.75;3.75;;;17.50;41.60;;;;;;4811712;29;20214;-85
2021/03/12 11:37:02;;;;;;;4.95;4.13;;;17.60;41.30;;;;;;4826057;29;20212;-85
2021/03/12 11:42:03;;;;;;;4.25;3.47;;;17.50;41.40;;;;;;5567123;23;20246;-81
2021/03/12 11:44:38;;;;;;;6.07;4.20;;;17.60;41.20;;;;;;4891410;29;20244;-83
2021/03/12 11:47:03;;;;;;;4.68;3.80;;;17.60;41.40;;;;;;4883110;29;20173;-82
2021/03/12 11:49:29;;;;;;;4.90;3.90;;;17.60;41.60;;;;;;4868704;29;20240;-82
2021/03/12 11:51:57;;;;;;;4.55;3.42;;;17.50;41.50;;;;;;4837362;29;20276;-81
2021/03/12 11:54:24;;;;;;;5.05;3.70;;;17.50;41.60;;;;;;4867413;29;20165;-81
2021/03/12 11:56:51;;;;;;;4.88;4.10;;;17.50;41.50;;;;;;4867436;29;20161;-81
2021/03/12 11:59:21;;;;;;;5.20;3.63;;;17.50;41.60;;;;;;4870332;29;20719;-81
2021/03/12 12:01:48;;;;;;;5.07;3.88;;;17.40;41.70;;;;;;4860564;29;20190;-79
2021/03/12 12:04:18;;;;;;;4.03;3.25;;;17.40;41.60;;;;;;4861114;29;20176;-80
2021/03/12 12:06:45;;;;;;;5.07;3.90;;;17.40;41.60;;;;;;4860374;29;20161;-80
2021/03/12 12:09:12;;;;;;;4.72;3.67;;;17.40;41.60;;;;;;4875710;29;20169;-80
2021/03/12 12:11:38;;;;;;;4.50;3.22;;;17.50;41.60;;;;;;4875827;29;20165;-80
2021/03/12 12:14:09;;;;;;;4.50;3.50;;;17.50;41.40;;;;;;4875853;29;20201;-80
2021/03/12 12:16:36;;;;;;;4.05;3.25;;;17.50;41.50;;;;;;4875271;29;20200;-80
2021/03/12 12:19:08;;;;;;;4.72;3.22;;;17.60;41.30;;;;;;4860016;29;20173;-80
2021/03/12 12:21:38;;;;;;;4.80;3.72;;;17.50;41.50;;;;;;4861564;29;20199;-81
2021/03/12 12:24:07;;;;;;;4.35;3.70;;;17.50;41.60;;;;;;4859877;29;20232;-80
2021/03/12 12:26:34;;;;;;;4.68;3.80;;;17.50;41.60;;;;;;4876730;29;20161;-80
2021/03/12 12:29:04;;;;;;;4.03;3.55;;;17.50;41.60;;;;;;4875379;29;20244;-80
2021/03/12 12:31:31;;;;;;;4.05;3.30;;;17.40;41.70;;;;;;4860131;29;20188;-80
2021/03/12 12:33:58;;;;;;;3.80;2.90;;;17.40;42.30;;;;;;4875174;29;20193;-80
2021/03/12 12:36:27;;;;;;;4.00;3.15;;;17.50;41.50;;;;;;4876096;29;20161;-80
2021/03/12 12:38:55;;;;;;;4.03;3.33;;;17.50;41.50;;;;;;4875714;29;20263;-80
2021/03/12 12:41:21;;;;;;;4.05;3.10;;;17.60;41.40;;;;;;4875573;29;20229;-80
2021/03/12 12:43:48;;;;;;;4.65;3.00;;;17.50;41.30;;;;;;4860080;29;20173;-81
2021/03/12 12:46:15;;;;;;;5.05;3.97;;;17.60;41.20;;;;;;4875516;29;20236;-80
2021/03/12 12:48:44;;;;;;;3.85;3.28;;;17.60;41.40;;;;;;4874730;29;20180;-80
2021/03/12 12:51:11;;;;;;;3.97;3.10;;;17.60;41.40;;;;;;4874420;29;20260;-80
2021/03/12 12:53:40;;;;;;;4.45;3.63;;;17.60;41.60;;;;;;4859654;29;20215;-80
2021/03/12 12:56:10;;;;;;;3.45;2.97;;;17.60;41.40;;;;;;4875003;29;20165;-80
2021/03/12 12:58:37;;;;;;;4.70;3.38;;;17.60;41.40;;;;;;4874795;29;20229;-80
2021/03/12 13:01:12;;;;;;;4.15;3.28;;;17.60;41.40;;;;;;4874099;29;20173;-80
2021/03/12 13:03:39;;;;;;;3.83;3.20;;;17.60;41.30;;;;;;4874851;29;20552;-80
2021/03/12 13:06:06;;;;;;;4.20;3.25;;;17.60;41.50;;;;;;4874664;29;20617;-80
2021/03/12 13:08:34;;;;;;;4.28;3.03;;;17.50;41.60;;;;;;4874562;29;20629;-80
2021/03/12 13:11:03;;;;;;;3.80;3.00;;;17.50;41.40;;;;;;4874583;29;20185;-81
2021/03/12 13:13:33;;;;;;;3.25;2.72;;;17.40;41.50;;;;;;4874145;29;20227;-80
2021/03/12 13:16:04;;;;;;;3.63;3.15;;;17.50;41.50;;;;;;4859113;29;20188;-81
2021/03/12 13:18:34;;;;;;;4.20;3.00;;;17.50;41.60;;;;;;4874056;29;20186;-81
2021/03/12 13:21:07;;;;;;;3.80;3.05;;;17.40;41.60;;;;;;4874419;29;20250;-80
2021/03/12 13:23:42;;;;;;;4.28;3.10;;;17.50;41.60;;;;;;4874200;29;20164;-80
2021/03/12 13:26:13;;;;;;;4.10;2.90;;;17.50;41.70;;;;;;4858007;29;20525;-80
2021/03/12 13:28:41;;;;;;;3.03;2.70;;;17.50;41.70;;;;;;4875197;29;20224;-80
2021/03/12 13:31:06;;;;;;;4.10;2.85;;;17.50;41.30;;;;;;4873536;29;20189;-81
2021/03/12 13:33:33;;;;;;;3.67;3.00;;;17.60;41.40;;;;;;4842649;29;20291;-79
2021/03/12 13:36:06;;;;;;;4.03;2.90;;;17.60;41.30;;;;;;4872079;29;20169;-80
2021/03/12 13:38:34;;;;;;;3.85;3.10;;;17.50;41.40;;;;;;4865758;29;20175;-79
2021/03/12 13:41:03;;;;;;;4.10;3.20;;;17.50;41.50;;;;;;4877167;29;20242;-79
2021/03/12 13:43:30;;;;;;;3.72;2.60;;;17.60;41.30;;;;;;4877440;29;20223;-80
2021/03/12 13:45:56;;;;;;;3.90;3.10;;;17.50;41.60;;;;;;4877083;29;20180;-79
2021/03/12 13:48:22;;;;;;;3.70;2.90;;;17.50;41.70;;;;;;4861593;29;20176;-79